sensor_id;sensor_type;location;lat;lon;timestamp;pressure;altitude;pressure_sealevel;temperature;humidity
33151;BME280;19508;42.578;23.416;2022-09-03T00:00:15;93661.13;;;18.67;84.06
33151;BME280;19508;42.578;23.416;2022-09-03T00:02:46;93670.81;;;18.73;84.30
33151;BME280;19508;42.578;23.416;2022-09-03T00:05:36;93675.41;;;18.86;83.04
33151;BME280;19508;42.578;23.416;2022-09-03T00:08:29;93668.41;;;18.72;83.71
33151;BME280;19508;42.578;23.416;2022-09-03T00:11:23;93663.94;;;18.76;83.92
33151;BME280;19508;42.578;23.416;2022-09-03T00:14:13;93684.94;;;18.75;84.03
33151;BME280;19508;42.578;23.416;2022-09-03T00:16:53;93681.75;;;18.73;84.29
33151;BME280;19508;42.578;23.416;2022-09-03T00:19:32;93679.75;;;18.65;84.45
33151;BME280;19508;42.578;23.416;2022-09-03T00:22:03;93683.16;;;18.57;84.41
33151;BME280;19508;42.578;23.416;2022-09-03T00:24:35;93671.28;;;18.25;84.05
33151;BME280;19508;42.578;23.416;2022-09-03T00:27:12;93681.66;;;18.37;84.05
33151;BME280;19508;42.578;23.416;2022-09-03T00:32:24;93675.06;;;18.52;83.26
33151;BME280;19508;42.578;23.416;2022-09-03T00:35:00;93686.47;;;18.54;83.79
33151;BME280;19508;42.578;23.416;2022-09-03T00:37:27;93680.16;;;18.31;83.90
33151;BME280;19508;42.578;23.416;2022-09-03T00:39:54;93669.44;;;18.35;83.78
33151;BME280;19508;42.578;23.416;2022-09-03T00:42:44;93677.84;;;18.38;84.63
33151;BME280;19508;42.578;23.416;2022-09-03T00:48:24;93675.38;;;18.50;83.58
33151;BME280;19508;42.578;23.416;2022-09-03T00:53:55;93675.56;;;18.54;83.73
33151;BME280;19508;42.578;23.416;2022-09-03T00:59:36;93682.66;;;18.55;83.85
33151;BME280;19508;42.578;23.416;2022-09-03T01:02:14;93680.91;;;18.59;84.05
33151;BME280;19508;42.578;23.416;2022-09-03T01:15:57;93673.16;;;18.66;84.13
33151;BME280;19508;42.578;23.416;2022-09-03T01:18:38;93676.47;;;18.63;84.15
33151;BME280;19508;42.578;23.416;2022-09-03T01:21:38;93660.94;;;18.64;83.94
33151;BME280;19508;42.578;23.416;2022-09-03T01:29:52;93670.19;;;18.63;82.93
33151;BME280;19508;42.578;23.416;2022-09-03T01:32:26;93673.16;;;18.52;83.29
33151;BME280;19508;42.578;23.416;2022-09-03T01:40:31;93693.03;;;18.53;84.00
33151;BME280;19508;42.578;23.416;2022-09-03T01:46:12;93689.03;;;18.37;84.21
33151;BME280;19508;42.578;23.416;2022-09-03T01:51:17;93709.03;;;18.18;83.42
33151;BME280;19508;42.578;23.416;2022-09-03T02:02:04;93701.97;;;18.17;82.30
33151;BME280;19508;42.578;23.416;2022-09-03T02:04:32;93698.97;;;18.05;82.09
33151;BME280;19508;42.578;23.416;2022-09-03T02:06:59;93691.28;;;17.80;83.02
33151;BME280;19508;42.578;23.416;2022-09-03T02:09:26;93687.94;;;17.83;82.95
33151;BME280;19508;42.578;23.416;2022-09-03T02:11:57;93693.69;;;17.81;83.17
33151;BME280;19508;42.578;23.416;2022-09-03T02:14:26;93687.94;;;17.83;82.16
33151;BME280;19508;42.578;23.416;2022-09-03T02:16:56;93693.31;;;17.88;82.13
33151;BME280;19508;42.578;23.416;2022-09-03T02:19:22;93693.50;;;17.78;82.60
33151;BME280;19508;42.578;23.416;2022-09-03T02:21:54;93693.50;;;17.78;82.14
33151;BME280;19508;42.578;23.416;2022-09-03T02:24:20;93701.16;;;18.03;81.54
33151;BME280;19508;42.578;23.416;2022-09-03T02:26:46;93696.03;;;17.88;82.04
33151;BME280;19508;42.578;23.416;2022-09-03T02:29:16;93704.19;;;17.88;82.99
33151;BME280;19508;42.578;23.416;2022-09-03T02:31:43;93706.22;;;17.96;82.54
33151;BME280;19508;42.578;23.416;2022-09-03T02:34:09;93709.44;;;17.98;82.80
33151;BME280;19508;42.578;23.416;2022-09-03T02:36:45;93710.84;;;18.09;82.30
33151;BME280;19508;42.578;23.416;2022-09-03T02:39:11;93708.03;;;18.14;81.51
33151;BME280;19508;42.578;23.416;2022-09-03T02:41:37;93717.09;;;18.10;82.82
33151;BME280;19508;42.578;23.416;2022-09-03T02:44:11;93717.72;;;18.07;83.54
33151;BME280;19508;42.578;23.416;2022-09-03T02:46:43;93707.63;;;18.07;83.49
33151;BME280;19508;42.578;23.416;2022-09-03T02:49:09;93711.66;;;18.10;83.06
33151;BME280;19508;42.578;23.416;2022-09-03T02:51:38;93708.84;;;18.15;82.22
33151;BME280;19508;42.578;23.416;2022-09-03T02:54:04;93702.97;;;18.08;82.75
33151;BME280;19508;42.578;23.416;2022-09-03T02:56:29;93724.25;;;18.19;82.33
33151;BME280;19508;42.578;23.416;2022-09-03T02:58:55;93716.72;;;18.16;82.65
33151;BME280;19508;42.578;23.416;2022-09-03T03:01:21;93711.25;;;18.16;82.53
33151;BME280;19508;42.578;23.416;2022-09-03T03:03:47;93717.72;;;18.20;81.93
33151;BME280;19508;42.578;23.416;2022-09-03T03:06:13;93720.53;;;18.15;81.79
33151;BME280;19508;42.578;23.416;2022-09-03T03:08:39;93720.13;;;18.08;82.19
33151;BME280;19508;42.578;23.416;2022-09-03T03:11:05;93713.88;;;18.08;82.25
33151;BME280;19508;42.578;23.416;2022-09-03T03:13:32;93716.78;;;18.11;82.56
33151;BME280;19508;42.578;23.416;2022-09-03T03:16:02;93716.72;;;18.16;82.15
33151;BME280;19508;42.578;23.416;2022-09-03T03:18:30;93713.91;;;18.21;80.96
33151;BME280;19508;42.578;23.416;2022-09-03T03:20:56;93713.50;;;18.14;81.63
33151;BME280;19508;42.578;23.416;2022-09-03T03:23:22;93709.66;;;18.15;81.12
33151;BME280;19508;42.578;23.416;2022-09-03T03:25:47;93715.41;;;18.14;81.24
33151;BME280;19508;42.578;23.416;2022-09-03T03:28:13;93702.78;;;18.04;81.36
33151;BME280;19508;42.578;23.416;2022-09-03T03:30:39;93708.41;;;17.94;81.29
33151;BME280;19508;42.578;23.416;2022-09-03T03:33:07;93709.63;;;17.88;81.53
33151;BME280;19508;42.578;23.416;2022-09-03T03:35:34;93702.97;;;17.94;81.58
33151;BME280;19508;42.578;23.416;2022-09-03T03:37:59;93702.38;;;17.97;81.56
33151;BME280;19508;42.578;23.416;2022-09-03T03:40:25;93713.78;;;17.99;81.87
33151;BME280;19508;42.578;23.416;2022-09-03T03:42:51;93714.78;;;18.03;81.97
33151;BME280;19508;42.578;23.416;2022-09-03T03:45:17;93720.34;;;17.98;82.50
33151;BME280;19508;42.578;23.416;2022-09-03T03:47:43;93710.63;;;17.92;82.19
33151;BME280;19508;42.578;23.416;2022-09-03T03:50:09;93712.97;;;17.98;81.92
33151;BME280;19508;42.578;23.416;2022-09-03T03:52:34;93720.22;;;18.03;82.30
33151;BME280;19508;42.578;23.416;2022-09-03T03:55:00;93713.78;;;17.99;82.04
33151;BME280;19508;42.578;23.416;2022-09-03T03:57:28;93713.78;;;17.99;82.26
33151;BME280;19508;42.578;23.416;2022-09-03T03:59:55;93706.59;;;18.03;82.09
33151;BME280;19508;42.578;23.416;2022-09-03T04:02:20;93707.63;;;18.07;80.88
33151;BME280;19508;42.578;23.416;2022-09-03T04:04:46;93717.72;;;18.07;81.06
33151;BME280;19508;42.578;23.416;2022-09-03T04:07:11;93722.34;;;18.06;81.49
33151;BME280;19508;42.578;23.416;2022-09-03T04:09:37;93717.00;;;18.01;81.19
33151;BME280;19508;42.578;23.416;2022-09-03T04:12:03;93724.97;;;18.11;81.48
33151;BME280;19508;42.578;23.416;2022-09-03T04:14:33;93721.56;;;18.06;81.73
33151;BME280;19508;42.578;23.416;2022-09-03T04:16:59;93736.72;;;18.12;82.11
33151;BME280;19508;42.578;23.416;2022-09-03T04:19:25;93730.03;;;18.18;81.18
33151;BME280;19508;42.578;23.416;2022-09-03T04:21:54;93726.91;;;17.97;81.18
33151;BME280;19508;42.578;23.416;2022-09-03T04:24:20;93727.47;;;17.94;82.55
33151;BME280;19508;42.578;23.416;2022-09-03T04:26:45;93715.88;;;18.02;81.49
33151;BME280;19508;42.578;23.416;2022-09-03T04:29:11;93720.34;;;18.12;81.51
33151;BME280;19508;42.578;23.416;2022-09-03T04:31:38;93716.53;;;18.13;81.22
33151;BME280;19508;42.578;23.416;2022-09-03T04:34:04;93717.31;;;18.13;79.61
33151;BME280;19508;42.578;23.416;2022-09-03T04:36:33;93717.31;;;18.13;79.50
33151;BME280;19508;42.578;23.416;2022-09-03T04:39:01;93727.19;;;18.09;80.13
33151;BME280;19508;42.578;23.416;2022-09-03T04:41:29;93740.31;;;18.07;80.88
33151;BME280;19508;42.578;23.416;2022-09-03T04:43:55;93726.59;;;18.12;81.02
33151;BME280;19508;42.578;23.416;2022-09-03T04:46:25;93737.88;;;18.19;80.97
33151;BME280;19508;42.578;23.416;2022-09-03T04:48:52;93744.44;;;18.18;81.30
33151;BME280;19508;42.578;23.416;2022-09-03T04:51:21;93751.44;;;18.24;80.51
33151;BME280;19508;42.578;23.416;2022-09-03T04:53:54;93744.97;;;18.20;79.87
33151;BME280;19508;42.578;23.416;2022-09-03T04:56:25;93755.44;;;17.99;80.96
33151;BME280;19508;42.578;23.416;2022-09-03T04:58:56;93760.28;;;18.02;81.26
33151;BME280;19508;42.578;23.416;2022-09-03T05:01:25;93766.34;;;17.99;81.13
33151;BME280;19508;42.578;23.416;2022-09-03T05:03:52;93760.59;;;18.01;81.13
33151;BME280;19508;42.578;23.416;2022-09-03T05:06:18;93767.25;;;18.09;80.43
33151;BME280;19508;42.578;23.416;2022-09-03T05:08:48;93773.75;;;18.13;80.08
33151;BME280;19508;42.578;23.416;2022-09-03T05:11:14;93783.22;;;18.15;80.82
33151;BME280;19508;42.578;23.416;2022-09-03T05:13:41;93777.22;;;17.99;82.24
33151;BME280;19508;42.578;23.416;2022-09-03T05:16:09;93774.22;;;18.01;81.32
33151;BME280;19508;42.578;23.416;2022-09-03T05:18:35;93762.84;;;18.13;80.55
33151;BME280;19508;42.578;23.416;2022-09-03T05:21:06;93774.44;;;18.18;81.01
33151;BME280;19508;42.578;23.416;2022-09-03T05:23:41;93776.94;;;18.28;80.99
33151;BME280;19508;42.578;23.416;2022-09-03T05:26:10;93781.31;;;18.29;80.80
33151;BME280;19508;42.578;23.416;2022-09-03T05:28:38;93781.91;;;18.26;81.16
33151;BME280;19508;42.578;23.416;2022-09-03T05:31:06;93781.09;;;18.26;81.04
33151;BME280;19508;42.578;23.416;2022-09-03T05:33:36;93772.53;;;18.32;79.80
33151;BME280;19508;42.578;23.416;2022-09-03T05:36:05;93779.59;;;18.33;79.75
33151;BME280;19508;42.578;23.416;2022-09-03T05:38:31;93784.44;;;18.37;79.10
33151;BME280;19508;42.578;23.416;2022-09-03T05:40:58;93786.16;;;18.32;78.96
33151;BME280;19508;42.578;23.416;2022-09-03T05:43:25;93778.28;;;18.31;78.88
33151;BME280;19508;42.578;23.416;2022-09-03T05:45:50;93784.13;;;18.24;79.45
33151;BME280;19508;42.578;23.416;2022-09-03T05:48:16;93792.31;;;18.24;79.03
33151;BME280;19508;42.578;23.416;2022-09-03T05:50:41;93792.81;;;18.13;79.30
33151;BME280;19508;42.578;23.416;2022-09-03T05:53:07;93792.19;;;18.16;79.59
33151;BME280;19508;42.578;23.416;2022-09-03T05:55:32;93794.19;;;18.10;79.54
33151;BME280;19508;42.578;23.416;2022-09-03T05:57:58;93802.47;;;18.05;80.64
33151;BME280;19508;42.578;23.416;2022-09-03T06:00:24;93802.28;;;18.15;79.79
33151;BME280;19508;42.578;23.416;2022-09-03T06:02:52;93804.63;;;18.22;78.87
33151;BME280;19508;42.578;23.416;2022-09-03T06:05:18;93818.44;;;18.12;80.50
33151;BME280;19508;42.578;23.416;2022-09-03T06:07:45;93818.28;;;18.03;80.85
33151;BME280;19508;42.578;23.416;2022-09-03T06:10:14;93797.53;;;18.07;80.11
33151;BME280;19508;42.578;23.416;2022-09-03T06:12:42;93808.72;;;18.06;80.20
33151;BME280;19508;42.578;23.416;2022-09-03T06:15:14;93802.28;;;18.15;79.50
33151;BME280;19508;42.578;23.416;2022-09-03T06:17:39;93799.22;;;18.03;79.94
33151;BME280;19508;42.578;23.416;2022-09-03T06:20:05;93813.50;;;18.14;79.91
33151;BME280;19508;42.578;23.416;2022-09-03T06:22:31;93817.22;;;18.18;79.45
33151;BME280;19508;42.578;23.416;2022-09-03T06:24:56;93803.97;;;18.11;79.82
33151;BME280;19508;42.578;23.416;2022-09-03T06:27:22;93792.88;;;18.08;78.83
33151;BME280;19508;42.578;23.416;2022-09-03T06:29:48;93807.94;;;18.19;78.58
33151;BME280;19508;42.578;23.416;2022-09-03T06:32:15;93810.13;;;18.03;78.40
33151;BME280;19508;42.578;23.416;2022-09-03T06:34:40;93811.41;;;17.92;79.49
33151;BME280;19508;42.578;23.416;2022-09-03T06:37:06;93810.91;;;17.90;78.85
33151;BME280;19508;42.578;23.416;2022-09-03T06:39:31;93816.09;;;18.05;78.96
33151;BME280;19508;42.578;23.416;2022-09-03T06:41:57;93833.16;;;18.11;79.12
33151;BME280;19508;42.578;23.416;2022-09-03T06:44:22;93811.16;;;18.07;77.91
33151;BME280;19508;42.578;23.416;2022-09-03T06:46:48;93818.59;;;18.01;78.94
33151;BME280;19508;42.578;23.416;2022-09-03T06:49:14;93810.53;;;18.10;78.73
33151;BME280;19508;42.578;23.416;2022-09-03T06:51:40;93817.75;;;18.33;78.01
33151;BME280;19508;42.578;23.416;2022-09-03T06:54:09;93815.72;;;18.25;78.37
33151;BME280;19508;42.578;23.416;2022-09-03T06:56:36;93825.31;;;18.37;77.18
33151;BME280;19508;42.578;23.416;2022-09-03T06:59:10;93823.19;;;18.33;76.58
33151;BME280;19508;42.578;23.416;2022-09-03T07:01:37;93824.31;;;18.32;77.31
33151;BME280;19508;42.578;23.416;2022-09-03T07:04:05;93827.34;;;18.31;75.69
33151;BME280;19508;42.578;23.416;2022-09-03T07:06:33;93824.31;;;18.32;76.39
33151;BME280;19508;42.578;23.416;2022-09-03T07:09:02;93823.13;;;18.39;76.88
33151;BME280;19508;42.578;23.416;2022-09-03T07:11:29;93827.03;;;18.32;77.90
33151;BME280;19508;42.578;23.416;2022-09-03T07:13:56;93836.09;;;18.28;75.52
33151;BME280;19508;42.578;23.416;2022-09-03T07:16:33;93830.75;;;18.37;75.43
33151;BME280;19508;42.578;23.416;2022-09-03T07:19:00;93832.91;;;18.40;75.29
33151;BME280;19508;42.578;23.416;2022-09-03T07:21:28;93822.00;;;18.40;76.41
33151;BME280;19508;42.578;23.416;2022-09-03T07:23:55;93843.59;;;18.50;77.46
33151;BME280;19508;42.578;23.416;2022-09-03T07:26:23;93835.94;;;18.52;76.90
33151;BME280;19508;42.578;23.416;2022-09-03T07:28:50;93835.44;;;18.50;77.52
33151;BME280;19508;42.578;23.416;2022-09-03T07:31:26;93833.19;;;18.52;76.52
33151;BME280;19508;42.578;23.416;2022-09-03T07:33:56;93840.50;;;18.70;77.31
33151;BME280;19508;42.578;23.416;2022-09-03T07:36:23;93851.41;;;18.98;76.49
33151;BME280;19508;42.578;23.416;2022-09-03T07:38:49;93839.31;;;18.76;76.81
33151;BME280;19508;42.578;23.416;2022-09-03T07:41:15;93854.66;;;19.00;75.20
33151;BME280;19508;42.578;23.416;2022-09-03T07:43:42;93853.03;;;18.99;75.91
33151;BME280;19508;42.578;23.416;2022-09-03T07:46:09;93851.78;;;19.05;76.48
33151;BME280;19508;42.578;23.416;2022-09-03T07:48:39;93856.25;;;19.14;73.81
33151;BME280;19508;42.578;23.416;2022-09-03T07:51:05;93859.06;;;19.09;75.38
33151;BME280;19508;42.578;23.416;2022-09-03T07:53:34;93864.34;;;19.06;76.15
33151;BME280;19508;42.578;23.416;2022-09-03T07:56:06;93863.09;;;19.12;76.58
33151;BME280;19508;42.578;23.416;2022-09-03T07:58:32;93868.75;;;19.29;74.93
33151;BME280;19508;42.578;23.416;2022-09-03T08:01:04;93866.63;;;19.26;73.98
33151;BME280;19508;42.578;23.416;2022-09-03T08:03:29;93865.69;;;19.44;73.54
33151;BME280;19508;42.578;23.416;2022-09-03T08:06:00;93857.09;;;19.73;74.83
33151;BME280;19508;42.578;23.416;2022-09-03T08:08:26;93864.47;;;19.87;71.78
33151;BME280;19508;42.578;23.416;2022-09-03T08:10:51;93856.63;;;19.94;70.73
33151;BME280;19508;42.578;23.416;2022-09-03T08:13:17;93854.56;;;19.99;71.18
33151;BME280;19508;42.578;23.416;2022-09-03T08:15:52;93857.94;;;20.19;68.78
33151;BME280;19508;42.578;23.416;2022-09-03T08:18:18;93855.25;;;20.27;68.66
33151;BME280;19508;42.578;23.416;2022-09-03T08:20:44;93853.44;;;20.23;69.23
33151;BME280;19508;42.578;23.416;2022-09-03T08:23:09;93865.53;;;20.31;68.54
33151;BME280;19508;42.578;23.416;2022-09-03T08:25:35;93862.97;;;20.25;68.76
33151;BME280;19508;42.578;23.416;2022-09-03T08:28:00;93867.16;;;20.32;67.95
33151;BME280;19508;42.578;23.416;2022-09-03T08:30:26;93862.97;;;20.25;69.01
33151;BME280;19508;42.578;23.416;2022-09-03T08:32:52;93865.53;;;20.31;69.51
33151;BME280;19508;42.578;23.416;2022-09-03T08:35:17;93863.84;;;20.12;70.04
33151;BME280;19508;42.578;23.416;2022-09-03T08:37:43;93861.16;;;20.21;69.74
33151;BME280;19508;42.578;23.416;2022-09-03T08:40:08;93856.06;;;20.28;67.83
33151;BME280;19508;42.578;23.416;2022-09-03T08:43:11;93845.44;;;20.58;68.49
33151;BME280;19508;42.578;23.416;2022-09-03T08:45:41;93850.09;;;21.45;65.46
33151;BME280;19508;42.578;23.416;2022-09-03T08:48:20;93844.63;;;21.54;65.13
33151;BME280;19508;42.578;23.416;2022-09-03T08:50:49;93846.50;;;21.36;64.29
33151;BME280;19508;42.578;23.416;2022-09-03T08:56:07;93841.38;;;21.69;63.90
33151;BME280;19508;42.578;23.416;2022-09-03T08:58:36;93853.00;;;21.66;62.93
33151;BME280;19508;42.578;23.416;2022-09-03T09:09:20;93861.00;;;22.49;61.02
33151;BME280;19508;42.578;23.416;2022-09-03T09:17:54;93856.84;;;22.34;60.93
33151;BME280;19508;42.578;23.416;2022-09-03T09:23:05;93866.34;;;22.37;60.62
33151;BME280;19508;42.578;23.416;2022-09-03T09:25:33;93871.34;;;22.35;60.06
33151;BME280;19508;42.578;23.416;2022-09-03T09:28:15;93867.47;;;22.44;59.75
33151;BME280;19508;42.578;23.416;2022-09-03T09:30:43;93868.25;;;22.45;60.36
33151;BME280;19508;42.578;23.416;2022-09-03T09:33:10;93871.34;;;22.43;60.69
33151;BME280;19508;42.578;23.416;2022-09-03T09:35:36;93861.00;;;22.49;60.93
33151;BME280;19508;42.578;23.416;2022-09-03T09:38:05;93852.59;;;22.54;60.84
33151;BME280;19508;42.578;23.416;2022-09-03T09:40:35;93864.53;;;22.58;59.66
33151;BME280;19508;42.578;23.416;2022-09-03T09:43:12;93878.50;;;22.83;59.18
33151;BME280;19508;42.578;23.416;2022-09-03T09:45:42;93867.09;;;22.63;60.05
33151;BME280;19508;42.578;23.416;2022-09-03T09:48:14;93852.16;;;22.99;58.44
33151;BME280;19508;42.578;23.416;2022-09-03T09:50:42;93871.84;;;23.01;58.62
33151;BME280;19508;42.578;23.416;2022-09-03T09:53:09;93870.28;;;23.21;58.88
33151;BME280;19508;42.578;23.416;2022-09-03T09:55:55;93868.09;;;23.05;58.37
33151;BME280;19508;42.578;23.416;2022-09-03T09:58:27;93869.94;;;22.93;59.51
33151;BME280;19508;42.578;23.416;2022-09-03T10:01:00;93893.66;;;22.89;59.08
33151;BME280;19508;42.578;23.416;2022-09-03T10:03:28;93878.47;;;23.29;57.14
33151;BME280;19508;42.578;23.416;2022-09-03T10:06:03;93871.34;;;23.58;55.95
33151;BME280;19508;42.578;23.416;2022-09-03T10:08:50;93880.69;;;23.36;58.21
33151;BME280;19508;42.578;23.416;2022-09-03T10:11:19;93879.44;;;23.33;58.98
33151;BME280;19508;42.578;23.416;2022-09-03T10:13:52;93871.34;;;23.87;56.78
33151;BME280;19508;42.578;23.416;2022-09-03T10:16:29;93862.38;;;24.32;57.61
33151;BME280;19508;42.578;23.416;2022-09-03T10:19:08;93870.09;;;24.18;54.63
33151;BME280;19508;42.578;23.416;2022-09-03T10:21:43;93868.38;;;24.13;55.60
33151;BME280;19508;42.578;23.416;2022-09-03T10:24:55;93858.38;;;24.63;53.74
33151;BME280;19508;42.578;23.416;2022-09-03T10:27:25;93851.84;;;24.80;55.00
33151;BME280;19508;42.578;23.416;2022-09-03T10:30:00;93858.56;;;25.15;53.14
33151;BME280;19508;42.578;23.416;2022-09-03T10:35:31;93862.81;;;25.25;55.67
33151;BME280;19508;42.578;23.416;2022-09-03T10:40:48;93846.13;;;25.70;52.65
33151;BME280;19508;42.578;23.416;2022-09-03T10:55:04;93865.03;;;25.96;48.98
33151;BME280;19508;42.578;23.416;2022-09-03T10:58:23;93870.94;;;25.70;51.00
33151;BME280;19508;42.578;23.416;2022-09-03T11:06:27;93863.00;;;25.69;48.92
33151;BME280;19508;42.578;23.416;2022-09-03T11:14:47;93849.63;;;25.30;51.77
33151;BME280;19508;42.578;23.416;2022-09-03T11:17:25;93856.03;;;25.35;51.92
33151;BME280;19508;42.578;23.416;2022-09-03T11:20:20;93857.50;;;25.69;51.19
33151;BME280;19508;42.578;23.416;2022-09-03T11:22:45;93864.53;;;26.19;49.82
33151;BME280;19508;42.578;23.416;2022-09-03T11:25:20;93866.63;;;26.50;48.39
33151;BME280;19508;42.578;23.416;2022-09-03T11:30:28;93855.06;;;26.60;47.64
33151;BME280;19508;42.578;23.416;2022-09-03T11:33:10;93850.13;;;26.25;48.89
33151;BME280;19508;42.578;23.416;2022-09-03T11:39:39;93853.97;;;25.44;50.15
33151;BME280;19508;42.578;23.416;2022-09-03T11:42:39;93865.31;;;25.54;51.06
33151;BME280;19508;42.578;23.416;2022-09-03T11:47:55;93859.03;;;25.29;53.09
33151;BME280;19508;42.578;23.416;2022-09-03T11:50:31;93861.91;;;25.33;52.26
33151;BME280;19508;42.578;23.416;2022-09-03T11:53:41;93848.59;;;25.47;51.82
33151;BME280;19508;42.578;23.416;2022-09-03T11:56:46;93864.41;;;25.26;52.21
33151;BME280;19508;42.578;23.416;2022-09-03T11:59:24;93859.25;;;25.12;50.83
33151;BME280;19508;42.578;23.416;2022-09-03T12:02:15;93866.69;;;24.99;50.88
33151;BME280;19508;42.578;23.416;2022-09-03T12:08:26;93844.50;;;24.71;51.96
33151;BME280;19508;42.578;23.416;2022-09-03T12:18:00;93847.88;;;25.50;51.83
33151;BME280;19508;42.578;23.416;2022-09-03T12:24:00;93819.31;;;25.95;49.78
33151;BME280;19508;42.578;23.416;2022-09-03T12:26:58;93817.94;;;25.89;49.46
33151;BME280;19508;42.578;23.416;2022-09-03T12:29:27;93831.69;;;26.41;48.25
33151;BME280;19508;42.578;23.416;2022-09-03T12:32:16;93818.22;;;26.84;46.37
33151;BME280;19508;42.578;23.416;2022-09-03T12:35:22;93811.38;;;27.09;45.41
33151;BME280;19508;42.578;23.416;2022-09-03T12:37:54;93817.44;;;27.50;44.30
33151;BME280;19508;42.578;23.416;2022-09-03T12:40:48;93821.91;;;27.70;43.23
33151;BME280;19508;42.578;23.416;2022-09-03T12:43:50;93822.22;;;27.34;44.56
33151;BME280;19508;42.578;23.416;2022-09-03T12:46:15;93814.47;;;26.76;45.20
33151;BME280;19508;42.578;23.416;2022-09-03T12:49:02;93831.56;;;26.38;47.52
33151;BME280;19508;42.578;23.416;2022-09-03T12:52:19;93824.22;;;26.42;46.76
33151;BME280;19508;42.578;23.416;2022-09-03T12:59:20;93830.63;;;25.53;48.36
33151;BME280;19508;42.578;23.416;2022-09-03T13:01:53;93801.78;;;26.91;44.65
33151;BME280;19508;42.578;23.416;2022-09-03T13:04:31;93800.97;;;27.89;43.06
33151;BME280;19508;42.578;23.416;2022-09-03T13:07:02;93804.47;;;28.24;42.44
33151;BME280;19508;42.578;23.416;2022-09-03T13:09:33;93806.63;;;28.54;41.52
33151;BME280;19508;42.578;23.416;2022-09-03T13:12:27;93789.63;;;28.32;41.60
33151;BME280;19508;42.578;23.416;2022-09-03T13:15:25;93791.06;;;27.88;43.76
33151;BME280;19508;42.578;23.416;2022-09-03T13:20:44;93789.94;;;26.75;44.85
33151;BME280;19508;42.578;23.416;2022-09-03T13:23:29;93791.81;;;26.27;46.58
33151;BME280;19508;42.578;23.416;2022-09-03T13:32:13;93783.53;;;25.58;47.58
33151;BME280;19508;42.578;23.416;2022-09-03T13:35:15;93785.44;;;25.30;48.52
33151;BME280;19508;42.578;23.416;2022-09-03T13:38:12;93784.63;;;25.17;48.59
33151;BME280;19508;42.578;23.416;2022-09-03T13:46:29;93790.25;;;24.84;49.67
33151;BME280;19508;42.578;23.416;2022-09-03T13:52:04;93778.06;;;24.73;50.44
33151;BME280;19508;42.578;23.416;2022-09-03T13:54:41;93783.81;;;24.68;51.10
33151;BME280;19508;42.578;23.416;2022-09-03T14:00:42;93779.56;;;24.58;51.72
33151;BME280;19508;42.578;23.416;2022-09-03T14:06:39;93776.91;;;24.50;50.86
33151;BME280;19508;42.578;23.416;2022-09-03T14:09:53;93788.84;;;24.78;51.15
33151;BME280;19508;42.578;23.416;2022-09-03T14:13:09;93791.59;;;24.78;51.93
33151;BME280;19508;42.578;23.416;2022-09-03T14:22:06;93790.22;;;24.60;49.73
33151;BME280;19508;42.578;23.416;2022-09-03T14:24:55;93800.56;;;24.63;50.29
33151;BME280;19508;42.578;23.416;2022-09-03T14:27:47;93795.41;;;24.86;50.20
33151;BME280;19508;42.578;23.416;2022-09-03T14:30:39;93793.91;;;24.76;49.88
33151;BME280;19508;42.578;23.416;2022-09-03T14:36:09;93780.56;;;24.41;50.62
33151;BME280;19508;42.578;23.416;2022-09-03T14:54:36;93774.16;;;24.16;52.56
33151;BME280;19508;42.578;23.416;2022-09-03T15:00:08;93773.72;;;24.27;51.22
33151;BME280;19508;42.578;23.416;2022-09-03T15:03:06;93792.50;;;24.25;51.96
33151;BME280;19508;42.578;23.416;2022-09-03T15:12:17;93801.19;;;24.14;52.32
33151;BME280;19508;42.578;23.416;2022-09-03T15:14:55;93801.97;;;24.03;51.57
33151;BME280;19508;42.578;23.416;2022-09-03T15:17:32;93801.81;;;23.99;51.41
33151;BME280;19508;42.578;23.416;2022-09-03T15:20:09;93800.22;;;23.98;52.26
33151;BME280;19508;42.578;23.416;2022-09-03T15:26:01;93804.00;;;23.94;53.12
33151;BME280;19508;42.578;23.416;2022-09-03T15:34:11;93795.69;;;23.81;52.95
33151;BME280;19508;42.578;23.416;2022-09-03T15:36:46;93791.44;;;23.84;52.27
33151;BME280;19508;42.578;23.416;2022-09-03T15:39:26;93805.34;;;23.87;52.49
33151;BME280;19508;42.578;23.416;2022-09-03T15:44:52;93799.31;;;23.73;54.98
33151;BME280;19508;42.578;23.416;2022-09-03T15:56:57;93813.09;;;23.44;58.99
33151;BME280;19508;42.578;23.416;2022-09-03T16:00:07;93803.44;;;23.38;59.04
33151;BME280;19508;42.578;23.416;2022-09-03T16:02:45;93811.56;;;23.34;58.68
33151;BME280;19508;42.578;23.416;2022-09-03T16:11:20;93810.13;;;23.49;58.98
33151;BME280;19508;42.578;23.416;2022-09-03T16:14:15;93826.91;;;23.56;58.99
33151;BME280;19508;42.578;23.416;2022-09-03T16:20:18;93824.78;;;23.11;60.13
33151;BME280;19508;42.578;23.416;2022-09-03T16:22:55;93839.00;;;23.04;60.12
33151;BME280;19508;42.578;23.416;2022-09-03T16:25:54;93839.44;;;23.15;59.11
33151;BME280;19508;42.578;23.416;2022-09-03T16:42:17;93865.88;;;22.35;62.63
33151;BME280;19508;42.578;23.416;2022-09-03T16:44:57;93877.19;;;21.90;63.06
33151;BME280;19508;42.578;23.416;2022-09-03T16:47:40;93870.38;;;21.96;63.29
33151;BME280;19508;42.578;23.416;2022-09-03T16:50:26;93877.81;;;22.04;63.68
33151;BME280;19508;42.578;23.416;2022-09-03T16:55:51;93878.78;;;21.91;64.25
33151;BME280;19508;42.578;23.416;2022-09-03T17:09:54;93898.88;;;21.43;67.00
33151;BME280;19508;42.578;23.416;2022-09-03T17:12:36;93902.56;;;21.30;67.51
33151;BME280;19508;42.578;23.416;2022-09-03T17:15:31;93888.81;;;21.12;67.63
33151;BME280;19508;42.578;23.416;2022-09-03T17:23:47;93906.38;;;20.80;69.89
33151;BME280;19508;42.578;23.416;2022-09-03T17:32:07;93910.78;;;20.37;71.44
33151;BME280;19508;42.578;23.416;2022-09-03T17:43:27;93943.03;;;20.04;72.76